Time;durP1;ratioP1;P1;durP2;ratioP2;P2;SDS_P1;SDS_P2;PMS_P1;PMS_P2;Temp;Humidity;BMP_temperature;BMP_pressure;BME280_temperature;BME280_humidity;BME280_pressure;Samples;Min_cycle;Max_cycle;Signal;HPM_P1;HPM_P2
2022/11/17 00:00:24;;;;;;;2.30;0.80;;;12.90;99.90;;;;;;5096131;28;20020;-86
2022/11/17 00:02:49;;;;;;;2.50;0.60;;;12.80;99.90;;;;;;5111006;28;20031;-83
2022/11/17 00:05:15;;;;;;;3.55;0.95;;;12.80;99.90;;;;;;5098754;28;20038;-82
2022/11/17 00:07:43;;;;;;;2.00;0.47;;;12.70;99.90;;;;;;5098763;28;20510;-83
2022/11/17 00:10:09;;;;;;;2.53;0.43;;;12.70;99.90;;;;;;5088625;28;20115;-81
2022/11/17 00:15:18;;;;;;;3.97;0.60;;;12.70;99.90;;;;;;5098130;28;20030;-82
2022/11/17 00:17:47;;;;;;;4.82;0.98;;;12.60;99.90;;;;;;5097924;28;20536;-81
2022/11/17 00:22:58;;;;;;;2.20;0.60;;;12.60;99.90;;;;;;5102550;28;20088;-82
2022/11/17 00:25:23;;;;;;;2.45;0.63;;;12.50;99.90;;;;;;5088807;28;20020;-83
2022/11/17 00:27:49;;;;;;;3.22;0.70;;;12.60;99.90;;;;;;5081397;28;20032;-82
2022/11/17 00:34:03;;;;;;;4.03;1.15;;;12.50;99.90;;;;;;5082060;28;20027;-83
2022/11/17 00:35:53;;;;;;;4.43;1.08;;;12.50;99.90;;;;;;5096928;28;20043;-82
2022/11/17 00:38:19;;;;;;;2.45;0.85;;;12.50;99.90;;;;;;5091579;28;20013;-82
2022/11/17 00:40:46;;;;;;;2.58;0.70;;;12.50;99.90;;;;;;5070771;28;20039;-82
2022/11/17 00:43:11;;;;;;;3.63;0.80;;;12.50;99.90;;;;;;5103983;28;20102;-82
2022/11/17 00:45:37;;;;;;;4.32;0.68;;;12.50;99.90;;;;;;5095354;28;20066;-84
2022/11/17 00:48:03;;;;;;;4.35;1.02;;;12.40;99.90;;;;;;5077688;28;20034;-83
2022/11/17 00:50:28;;;;;;;4.10;0.95;;;12.40;99.90;;;;;;5103408;28;20032;-83
2022/11/17 00:52:54;;;;;;;3.15;1.00;;;12.40;99.90;;;;;;5082162;28;20024;-83
2022/11/17 00:55:29;;;;;;;5.97;1.13;;;12.40;99.90;;;;;;5100028;28;20032;-83
2022/11/17 00:57:54;;;;;;;4.13;0.85;;;12.40;99.90;;;;;;5082104;28;20024;-82
2022/11/17 01:00:22;;;;;;;6.20;1.02;;;12.40;99.90;;;;;;5101779;28;20028;-83
2022/11/17 01:02:48;;;;;;;5.00;0.90;;;12.40;99.80;;;;;;5094267;28;20019;-83
2022/11/17 01:05:14;;;;;;;5.53;0.88;;;12.40;99.90;;;;;;5120678;28;20035;-83
2022/11/17 01:07:40;;;;;;;4.35;0.93;;;12.30;99.90;;;;;;5082604;28;20032;-83
2022/11/17 01:10:06;;;;;;;6.78;1.10;;;12.30;99.90;;;;;;5081576;28;20130;-83
2022/11/17 01:12:31;;;;;;;5.50;1.05;;;12.30;99.90;;;;;;5106756;28;20102;-83
2022/11/17 01:14:57;;;;;;;4.82;0.95;;;12.30;99.90;;;;;;5086588;28;20078;-80
2022/11/17 01:17:23;;;;;;;5.20;1.25;;;12.30;99.90;;;;;;5104164;28;20024;-81
2022/11/17 01:19:49;;;;;;;5.78;1.10;;;12.30;99.90;;;;;;5107623;28;20055;-81
2022/11/17 01:22:14;;;;;;;5.63;1.13;;;12.30;99.90;;;;;;5119332;28;20619;-81
2022/11/17 01:24:40;;;;;;;6.22;1.30;;;12.30;99.90;;;;;;5102440;28;20070;-83
2022/11/17 01:27:05;;;;;;;8.40;1.42;;;12.30;99.90;;;;;;5084885;28;20064;-83
2022/11/17 01:29:31;;;;;;;9.40;2.13;;;12.30;99.90;;;;;;5084235;28;20028;-84
2022/11/17 01:31:57;;;;;;;5.65;1.42;;;12.30;99.90;;;;;;5110744;28;20387;-83
2022/11/17 01:34:22;;;;;;;6.57;1.23;;;12.30;99.90;;;;;;5112161;28;20043;-83
2022/11/17 01:39:32;;;;;;;10.55;1.85;;;12.40;99.90;;;;;;5101950;28;20092;-83
2022/11/17 01:42:03;;;;;;;11.95;1.77;;;12.40;99.90;;;;;;5102215;28;20020;-83
2022/11/17 01:44:54;;;;;;;14.40;1.85;;;12.40;99.90;;;;;;5080620;28;20032;-83
2022/11/17 01:47:34;;;;;;;7.03;1.70;;;12.40;99.90;;;;;;5080595;28;20085;-82
2022/11/17 01:50:29;;;;;;;11.55;1.58;;;12.40;99.90;;;;;;5102309;28;20075;-82
2022/11/17 01:53:01;;;;;;;7.90;1.58;;;12.40;99.90;;;;;;5101372;28;20032;-81
2022/11/17 01:55:36;;;;;;;6.65;1.50;;;12.30;99.90;;;;;;5101926;28;20108;-81
2022/11/17 01:58:07;;;;;;;9.07;1.65;;;12.30;99.90;;;;;;5091135;28;20087;-81
2022/11/17 02:00:33;;;;;;;9.43;1.55;;;12.30;99.90;;;;;;5106747;28;20099;-81
2022/11/17 02:02:59;;;;;;;6.65;1.27;;;12.40;99.90;;;;;;5081148;28;20052;-81
2022/11/17 02:06:02;;;;;;;9.27;2.03;;;12.40;99.90;;;;;;5080960;28;20060;-80
2022/11/17 02:08:31;;;;;;;7.05;1.58;;;12.30;99.90;;;;;;5099237;28;20479;-78
2022/11/17 02:10:59;;;;;;;9.25;1.75;;;12.30;99.90;;;;;;5097878;28;20032;-78
2022/11/17 02:13:26;;;;;;;9.23;1.80;;;12.30;99.90;;;;;;5079190;28;20031;-78
2022/11/17 02:15:52;;;;;;;11.07;2.03;;;12.30;99.90;;;;;;5099152;28;20025;-79
2022/11/17 02:18:19;;;;;;;11.40;1.90;;;12.30;99.90;;;;;;5106700;28;20433;-80
2022/11/17 02:21:23;;;;;;;13.68;1.90;;;12.40;99.90;;;;;;5110576;28;20408;-80
2022/11/17 02:23:52;;;;;;;12.65;2.15;;;12.40;99.90;;;;;;5029933;28;20029;-80
2022/11/17 02:26:40;;;;;;;9.13;1.70;;;12.40;99.90;;;;;;5008741;28;20632;-80
2022/11/17 02:29:09;;;;;;;10.73;2.13;;;12.40;99.90;;;;;;5065454;28;20481;-80
2022/11/17 02:31:52;;;;;;;13.68;2.20;;;12.40;99.90;;;;;;5082275;28;20039;-81
2022/11/17 02:34:39;;;;;;;11.07;1.83;;;12.40;99.90;;;;;;5104808;28;20024;-82
2022/11/17 02:40:52;;;;;;;9.45;1.75;;;12.40;99.90;;;;;;4980144;28;20502;-81
2022/11/17 02:46:23;;;;;;;6.85;1.42;;;12.40;99.90;;;;;;5099973;28;20050;-81
2022/11/17 02:49:02;;;;;;;10.23;1.98;;;12.30;99.90;;;;;;5078905;28;20153;-79
2022/11/17 02:51:29;;;;;;;6.38;1.40;;;12.30;99.90;;;;;;5075658;28;20020;-78
2022/11/17 02:53:56;;;;;;;8.73;1.67;;;12.30;99.90;;;;;;5118588;28;20472;-78
2022/11/17 02:56:22;;;;;;;7.65;1.35;;;12.30;99.90;;;;;;5086699;28;20024;-81
2022/11/17 02:58:52;;;;;;;6.55;1.25;;;12.20;99.90;;;;;;5079502;28;20028;-81
2022/11/17 03:01:48;;;;;;;10.68;1.65;;;12.20;99.90;;;;;;5103567;28;20405;-81
2022/11/17 03:04:54;;;;;;;4.85;1.20;;;12.30;99.90;;;;;;5067512;28;20477;-81
2022/11/17 03:07:48;;;;;;;10.98;1.67;;;12.20;99.90;;;;;;4979056;28;20049;-81
2022/11/17 03:10:34;;;;;;;7.63;1.20;;;12.20;99.90;;;;;;5102728;28;20480;-81
2022/11/17 03:13:11;;;;;;;4.15;1.15;;;12.30;99.90;;;;;;5080387;28;20032;-81
2022/11/17 03:16:18;;;;;;;6.68;1.08;;;12.30;99.90;;;;;;5100324;28;20047;-83
2022/11/17 03:18:56;;;;;;;5.32;1.15;;;12.30;99.90;;;;;;5100561;28;20054;-77
2022/11/17 03:21:32;;;;;;;3.72;0.85;;;12.30;99.90;;;;;;5097464;28;20095;-76
2022/11/17 03:24:14;;;;;;;4.50;1.38;;;12.30;99.90;;;;;;5077845;28;20038;-79
2022/11/17 03:26:46;;;;;;;5.75;1.30;;;12.20;99.90;;;;;;5095257;28;20070;-78
2022/11/17 03:29:16;;;;;;;4.72;0.98;;;12.10;99.90;;;;;;5099724;28;20441;-77
2022/11/17 03:31:46;;;;;;;7.13;1.17;;;11.90;99.90;;;;;;5079397;28;20385;-78
2022/11/17 03:34:17;;;;;;;3.33;0.80;;;11.80;99.90;;;;;;5100776;28;20381;-79
2022/11/17 03:36:47;;;;;;;5.13;0.95;;;11.80;99.90;;;;;;5077606;28;20028;-80
2022/11/17 03:39:23;;;;;;;4.32;0.88;;;11.80;99.90;;;;;;5088761;28;20016;-80
2022/11/17 03:41:54;;;;;;;4.50;1.00;;;11.80;99.90;;;;;;5097925;28;20393;-80
2022/11/17 03:44:22;;;;;;;5.82;1.25;;;11.80;99.90;;;;;;5099929;28;20055;-79
2022/11/17 03:46:51;;;;;;;7.03;1.33;;;11.80;99.90;;;;;;5078669;28;20057;-79
2022/11/17 03:49:46;;;;;;;3.63;0.88;;;11.90;99.90;;;;;;5113268;28;20059;-79
2022/11/17 03:52:12;;;;;;;5.47;0.90;;;11.90;99.90;;;;;;5095750;28;20111;-78
2022/11/17 03:54:39;;;;;;;5.35;1.08;;;12.00;99.90;;;;;;5115470;28;20047;-80
2022/11/17 03:57:12;;;;;;;4.50;0.90;;;12.00;99.90;;;;;;5079133;28;20032;-81
2022/11/17 04:00:02;;;;;;;3.80;0.82;;;12.00;99.90;;;;;;5079139;28;20115;-80
2022/11/17 04:02:28;;;;;;;2.70;0.70;;;12.00;99.90;;;;;;5107078;28;20060;-80
2022/11/17 04:05:06;;;;;;;4.18;0.93;;;12.10;99.90;;;;;;5104243;28;20028;-79
2022/11/17 04:07:33;;;;;;;6.78;0.90;;;12.10;99.90;;;;;;5113764;28;20500;-80
2022/11/17 04:09:59;;;;;;;5.38;1.08;;;12.10;99.90;;;;;;5095983;28;20031;-80
2022/11/17 04:17:54;;;;;;;3.42;1.00;;;12.20;99.90;;;;;;5107488;28;20035;-79
2022/11/17 04:20:19;;;;;;;4.68;0.70;;;12.30;99.90;;;;;;5078765;28;20020;-78
2022/11/17 04:23:05;;;;;;;2.70;0.70;;;12.30;99.90;;;;;;5078791;28;20028;-79
2022/11/17 04:31:00;;;;;;;3.72;0.63;;;12.20;99.90;;;;;;5115117;28;20035;-79
2022/11/17 04:33:25;;;;;;;3.72;0.77;;;12.20;99.90;;;;;;5082518;28;20027;-79
2022/11/17 04:35:51;;;;;;;4.72;0.88;;;12.20;99.90;;;;;;5109423;28;20066;-79
2022/11/17 04:38:17;;;;;;;3.40;0.77;;;12.20;99.90;;;;;;5094895;28;20450;-79
2022/11/17 04:41:52;;;;;;;6.97;1.35;;;12.20;99.90;;;;;;5101745;28;20028;-79
2022/11/17 04:43:28;;;;;;;3.50;0.93;;;12.10;99.90;;;;;;5116271;28;20128;-79
2022/11/17 04:46:00;;;;;;;3.55;0.75;;;12.10;99.90;;;;;;5116932;28;20028;-80
2022/11/17 04:48:29;;;;;;;3.70;0.75;;;12.20;99.90;;;;;;5082298;28;20039;-82
2022/11/17 04:50:56;;;;;;;3.90;0.80;;;12.10;99.90;;;;;;5114087;28;20020;-80
2022/11/17 04:53:22;;;;;;;3.65;0.60;;;12.10;99.90;;;;;;5103171;28;20453;-79
2022/11/17 04:55:48;;;;;;;3.58;0.85;;;12.10;99.90;;;;;;5112967;28;20051;-79
2022/11/17 04:58:14;;;;;;;3.83;1.00;;;12.10;99.90;;;;;;5113786;28;20059;-78
2022/11/17 05:00:40;;;;;;;5.68;1.10;;;12.10;99.90;;;;;;5081905;28;20032;-79
2022/11/17 05:03:06;;;;;;;4.50;0.90;;;12.10;99.90;;;;;;5082105;28;20020;-78
2022/11/17 05:05:31;;;;;;;3.53;0.63;;;12.10;99.90;;;;;;5105955;28;20032;-79
2022/11/17 05:07:57;;;;;;;9.07;1.10;;;12.10;99.90;;;;;;5109284;28;20085;-78
2022/11/17 05:13:26;;;;;;;4.35;0.80;;;12.10;99.90;;;;;;5106943;28;20471;-79
2022/11/17 05:18:39;;;;;;;6.07;1.13;;;12.10;99.90;;;;;;5101628;28;20034;-78
2022/11/17 05:21:07;;;;;;;5.38;1.02;;;12.10;99.90;;;;;;5104817;28;20438;-77
2022/11/17 05:26:18;;;;;;;7.18;0.82;;;12.10;99.90;;;;;;5102818;28;20073;-78
2022/11/17 05:28:43;;;;;;;3.88;0.90;;;12.10;99.90;;;;;;5081452;28;20027;-79
2022/11/17 05:31:09;;;;;;;2.78;0.50;;;12.10;99.90;;;;;;5112063;28;20068;-80
2022/11/17 05:33:35;;;;;;;5.65;0.85;;;12.10;99.90;;;;;;5120151;28;20023;-80
2022/11/17 05:36:01;;;;;;;5.95;0.95;;;12.10;99.90;;;;;;5109290;28;20439;-81
2022/11/17 05:38:27;;;;;;;6.50;1.30;;;12.10;99.90;;;;;;5110132;28;20020;-81
2022/11/17 05:40:53;;;;;;;6.43;0.93;;;12.10;99.90;;;;;;5101708;28;20089;-81
2022/11/17 05:43:18;;;;;;;2.80;0.70;;;12.10;99.90;;;;;;5114230;28;20027;-81
2022/11/17 05:45:45;;;;;;;4.35;0.80;;;12.10;99.90;;;;;;5102770;28;20028;-81
2022/11/17 05:48:13;;;;;;;6.05;1.00;;;12.10;99.90;;;;;;5081033;28;20373;-81
2022/11/17 05:50:39;;;;;;;6.20;1.02;;;12.20;99.90;;;;;;5108927;28;20024;-81
2022/11/17 05:53:05;;;;;;;10.55;1.45;;;12.20;99.90;;;;;;5086623;28;20498;-81
2022/11/17 05:55:30;;;;;;;11.73;1.35;;;12.10;99.90;;;;;;5081948;28;20107;-79
2022/11/17 05:58:01;;;;;;;7.15;1.42;;;12.10;99.90;;;;;;5109242;28;20062;-79
2022/11/17 06:00:28;;;;;;;6.97;1.58;;;12.10;99.90;;;;;;5102547;28;20065;-78
2022/11/17 06:03:00;;;;;;;6.85;1.60;;;12.10;99.90;;;;;;5090151;28;20076;-78
2022/11/17 06:05:26;;;;;;;6.30;1.13;;;12.10;99.90;;;;;;5111914;28;20099;-78
2022/11/17 06:07:53;;;;;;;3.83;0.98;;;12.10;99.90;;;;;;5109324;28;20020;-78
2022/11/17 06:10:20;;;;;;;3.05;1.02;;;12.00;99.90;;;;;;5119211;28;20034;-79
2022/11/17 06:12:46;;;;;;;8.43;1.15;;;12.00;99.90;;;;;;5108467;28;20032;-79
2022/11/17 06:15:12;;;;;;;2.88;0.90;;;11.90;99.90;;;;;;5102637;28;20020;-79
2022/11/17 06:17:54;;;;;;;5.22;1.15;;;11.90;99.90;;;;;;5112439;28;20019;-78
2022/11/17 06:20:25;;;;;;;5.82;1.08;;;11.90;99.90;;;;;;5106653;28;20015;-78
2022/11/17 06:22:51;;;;;;;8.40;1.70;;;11.90;99.90;;;;;;5106709;28;20028;-78
2022/11/17 06:25:19;;;;;;;7.85;1.33;;;11.80;99.90;;;;;;5080239;28;20035;-78
2022/11/17 06:27:47;;;;;;;14.23;1.70;;;11.80;99.90;;;;;;5113047;28;20032;-77
2022/11/17 06:30:12;;;;;;;5.30;1.08;;;11.80;99.90;;;;;;5079702;28;20024;-76
2022/11/17 06:32:42;;;;;;;3.90;1.10;;;11.80;99.90;;;;;;5100766;28;20023;-76
2022/11/17 06:35:09;;;;;;;7.38;1.40;;;11.70;99.90;;;;;;5104048;28;20035;-78
2022/11/17 06:37:35;;;;;;;3.40;0.90;;;11.70;99.90;;;;;;5087854;28;20033;-77
2022/11/17 06:40:00;;;;;;;5.55;1.33;;;11.70;99.90;;;;;;5095216;28;20107;-79
2022/11/17 06:45:11;;;;;;;3.67;0.57;;;11.70;99.90;;;;;;5098233;28;20050;-79
2022/11/17 06:47:36;;;;;;;2.53;0.90;;;11.70;99.90;;;;;;5097789;28;20435;-81
2022/11/17 06:50:03;;;;;;;3.08;0.75;;;11.70;99.90;;;;;;5080061;28;20902;-81
2022/11/17 06:52:29;;;;;;;6.70;1.10;;;11.70;99.90;;;;;;5072988;28;20092;-81
2022/11/17 06:54:54;;;;;;;4.60;1.20;;;11.60;99.90;;;;;;5094814;28;20157;-80
2022/11/17 06:57:20;;;;;;;4.57;1.02;;;11.60;99.90;;;;;;5076923;28;20575;-80
2022/11/17 06:59:46;;;;;;;7.32;1.20;;;11.60;99.90;;;;;;5072444;28;20020;-79
2022/11/17 07:02:11;;;;;;;5.25;0.82;;;11.60;99.90;;;;;;5076678;28;20028;-77
2022/11/17 07:04:37;;;;;;;3.70;0.77;;;11.50;99.90;;;;;;5096106;28;20020;-77
2022/11/17 07:07:03;;;;;;;3.97;0.90;;;11.50;99.90;;;;;;5096110;28;20089;-82
2022/11/17 07:09:28;;;;;;;2.20;1.08;;;11.50;99.90;;;;;;5077925;28;20028;-79
2022/11/17 07:11:54;;;;;;;4.50;1.10;;;11.50;99.90;;;;;;5079041;28;20530;-79
2022/11/17 07:14:19;;;;;;;2.33;0.68;;;11.50;99.90;;;;;;5105251;28;20011;-79
2022/11/17 07:16:45;;;;;;;5.45;0.80;;;11.50;99.90;;;;;;5108218;28;20024;-79
2022/11/17 07:19:12;;;;;;;6.57;1.00;;;11.40;99.90;;;;;;5118470;28;20042;-80
2022/11/17 07:21:37;;;;;;;3.45;0.70;;;11.40;99.90;;;;;;5118086;28;20123;-79
2022/11/17 07:24:03;;;;;;;3.30;0.70;;;11.40;99.90;;;;;;5084070;28;20134;-80
2022/11/17 07:26:29;;;;;;;4.47;0.85;;;11.40;99.90;;;;;;5115583;28;20078;-80
2022/11/17 07:28:54;;;;;;;2.72;0.57;;;11.40;99.90;;;;;;5085685;28;20035;-79
2022/11/17 07:31:20;;;;;;;4.03;0.95;;;11.40;99.90;;;;;;5079492;28;20031;-79
2022/11/17 07:33:46;;;;;;;6.03;0.80;;;11.40;99.90;;;;;;5079361;28;20443;-79
2022/11/17 07:36:13;;;;;;;2.13;0.50;;;11.40;99.90;;;;;;5097180;28;20020;-80
2022/11/17 07:38:40;;;;;;;5.80;0.60;;;11.30;99.90;;;;;;5089353;28;20020;-80
2022/11/17 07:41:06;;;;;;;4.65;1.02;;;11.40;99.90;;;;;;5076149;28;20020;-80
2022/11/17 07:43:33;;;;;;;2.72;0.68;;;11.30;99.90;;;;;;5097391;28;20020;-79
2022/11/17 07:46:06;;;;;;;1.00;0.40;;;11.40;99.90;;;;;;5097201;28;20024;-78
2022/11/17 07:48:32;;;;;;;3.38;0.80;;;11.40;99.90;;;;;;5078795;28;20174;-79
2022/11/17 07:50:59;;;;;;;1.70;0.50;;;11.40;99.90;;;;;;5115514;28;20077;-77
2022/11/17 07:53:24;;;;;;;2.53;0.73;;;11.40;99.90;;;;;;5097343;28;20365;-77
2022/11/17 07:55:50;;;;;;;4.72;0.70;;;11.30;99.90;;;;;;5095722;28;20034;-89
2022/11/17 07:58:16;;;;;;;5.40;0.82;;;11.40;99.90;;;;;;5079389;28;20047;-80
2022/11/17 08:00:41;;;;;;;2.42;0.75;;;11.40;99.90;;;;;;5103065;28;20489;-80
2022/11/17 08:03:08;;;;;;;3.65;0.85;;;11.40;99.90;;;;;;5103425;28;20513;-80
2022/11/17 08:05:35;;;;;;;3.75;0.80;;;11.40;99.90;;;;;;5085728;28;20024;-79
2022/11/17 08:08:01;;;;;;;4.78;0.80;;;11.30;99.90;;;;;;5086051;28;20365;-79
2022/11/17 08:10:30;;;;;;;2.67;0.70;;;11.40;99.90;;;;;;5103716;28;20072;-80
2022/11/17 08:12:57;;;;;;;5.88;1.10;;;11.40;99.90;;;;;;5104014;28;20024;-78
2022/11/17 08:15:22;;;;;;;3.90;0.70;;;11.40;99.90;;;;;;5103865;28;20027;-79
2022/11/17 08:17:55;;;;;;;4.80;1.05;;;11.40;99.90;;;;;;5103490;28;20099;-81
2022/11/17 08:20:22;;;;;;;3.35;0.93;;;11.40;99.90;;;;;;5104193;28;20065;-81
2022/11/17 08:22:50;;;;;;;3.95;0.82;;;11.40;99.90;;;;;;5086036;28;20056;-81
2022/11/17 08:25:17;;;;;;;4.97;0.80;;;11.40;99.90;;;;;;5085317;28;20028;-80
2022/11/17 08:27:43;;;;;;;2.88;0.60;;;11.40;99.90;;;;;;5103812;28;20438;-81
2022/11/17 08:30:09;;;;;;;4.22;0.77;;;11.40;99.90;;;;;;5085545;28;20031;-81
2022/11/17 08:32:35;;;;;;;4.95;0.90;;;11.40;99.90;;;;;;5085193;28;20047;-80
2022/11/17 08:35:02;;;;;;;5.50;1.20;;;11.40;99.90;;;;;;5103748;28;20032;-83
2022/11/17 08:37:29;;;;;;;3.67;0.73;;;11.50;99.90;;;;;;5103720;28;20023;-82
2022/11/17 08:39:55;;;;;;;3.65;0.88;;;11.50;99.90;;;;;;5075545;28;20024;-82
2022/11/17 08:42:20;;;;;;;2.85;0.80;;;11.50;99.90;;;;;;5085760;28;20016;-82
2022/11/17 08:44:46;;;;;;;2.95;0.65;;;11.50;99.90;;;;;;5085363;28;20031;-82
2022/11/17 08:47:11;;;;;;;6.97;0.90;;;11.60;99.90;;;;;;5103699;28;20055;-82
2022/11/17 08:49:37;;;;;;;6.97;1.45;;;11.60;99.90;;;;;;5103684;28;20105;-81
2022/11/17 08:52:03;;;;;;;7.18;1.17;;;11.60;99.90;;;;;;5082399;28;20113;-82
2022/11/17 08:54:28;;;;;;;5.85;1.00;;;11.60;99.90;;;;;;5123753;28;20032;-82
2022/11/17 08:56:58;;;;;;;4.35;0.95;;;11.60;99.90;;;;;;5105764;28;20437;-82
2022/11/17 08:59:24;;;;;;;5.25;1.13;;;11.70;99.90;;;;;;5105729;28;21429;-81
2022/11/17 09:01:50;;;;;;;7.85;1.90;;;11.60;99.90;;;;;;5123687;28;20031;-79
2022/11/17 09:04:16;;;;;;;5.10;1.30;;;11.70;99.90;;;;;;5105696;28;20449;-79
2022/11/17 09:06:42;;;;;;;4.35;1.05;;;11.70;99.90;;;;;;5123814;28;20107;-79
2022/11/17 09:09:08;;;;;;;4.93;0.85;;;11.80;99.90;;;;;;5124466;28;20058;-72
2022/11/17 09:11:33;;;;;;;6.22;1.10;;;11.80;99.90;;;;;;5119823;28;20376;-72
2022/11/17 09:13:59;;;;;;;6.72;1.23;;;11.90;99.90;;;;;;5120806;28;20035;-73
2022/11/17 09:16:24;;;;;;;7.63;1.20;;;11.90;99.90;;;;;;5114137;28;20065;-72
2022/11/17 09:18:57;;;;;;;5.07;1.02;;;11.90;99.90;;;;;;5099414;28;20024;-71
2022/11/17 09:21:23;;;;;;;6.33;1.10;;;11.90;99.90;;;;;;5099782;28;20024;-70
2022/11/17 09:23:48;;;;;;;6.95;1.10;;;12.00;99.90;;;;;;5100130;28;20475;-71
2022/11/17 09:26:15;;;;;;;4.97;1.05;;;12.00;99.90;;;;;;5115179;28;20031;-71
2022/11/17 09:28:42;;;;;;;7.95;1.20;;;12.10;99.90;;;;;;5119832;28;20027;-71
2022/11/17 09:31:11;;;;;;;6.60;1.20;;;12.10;99.90;;;;;;5101239;28;20045;-72
2022/11/17 09:33:36;;;;;;;3.17;0.80;;;12.10;99.90;;;;;;5119700;28;20042;-71
2022/11/17 09:36:03;;;;;;;5.40;1.00;;;12.10;99.90;;;;;;5119691;28;20023;-71
2022/11/17 09:38:28;;;;;;;5.32;1.25;;;12.20;99.90;;;;;;5113113;28;20012;-72
2022/11/17 09:40:57;;;;;;;4.68;1.33;;;12.20;99.90;;;;;;5098959;28;20095;-71
2022/11/17 09:43:29;;;;;;;7.95;1.40;;;12.20;99.90;;;;;;5099227;28;20012;-71
2022/11/17 09:46:04;;;;;;;4.47;0.75;;;12.30;99.90;;;;;;5098880;28;20028;-72
2022/11/17 09:48:44;;;;;;;7.75;1.20;;;12.40;99.90;;;;;;5098701;28;20047;-72
2022/11/17 09:51:14;;;;;;;5.93;1.10;;;12.40;99.90;;;;;;5117101;28;20512;-72
2022/11/17 09:54:01;;;;;;;5.82;1.02;;;12.50;99.90;;;;;;5098545;28;20531;-73
2022/11/17 09:56:27;;;;;;;5.07;0.68;;;12.60;99.90;;;;;;5098805;28;20488;-72
2022/11/17 09:58:57;;;;;;;8.13;1.13;;;12.70;99.90;;;;;;5098904;28;20047;-72
2022/11/17 10:01:27;;;;;;;5.22;1.10;;;12.70;99.90;;;;;;5098800;28;20024;-73
2022/11/17 10:03:55;;;;;;;5.78;1.20;;;12.70;99.90;;;;;;5098665;28;20024;-71
2022/11/17 10:06:26;;;;;;;2.90;0.82;;;12.80;99.90;;;;;;5081114;28;20377;-71
2022/11/17 10:09:21;;;;;;;3.45;1.00;;;12.80;99.90;;;;;;5098624;28;20431;-72
2022/11/17 10:11:47;;;;;;;4.53;0.93;;;12.80;99.90;;;;;;5097537;28;20023;-73
2022/11/17 10:14:15;;;;;;;6.47;1.83;;;12.80;99.90;;;;;;5079371;28;20028;-78
2022/11/17 10:16:49;;;;;;;5.50;1.15;;;12.80;99.90;;;;;;5096789;28;20034;-73
2022/11/17 10:19:29;;;;;;;10.07;1.10;;;12.80;99.90;;;;;;5096992;28;20371;-75
2022/11/17 10:22:00;;;;;;;6.13;1.00;;;12.90;99.90;;;;;;5098457;28;20462;-72
2022/11/17 10:24:49;;;;;;;8.05;1.20;;;12.80;99.90;;;;;;5099379;28;20035;-76
2022/11/17 10:27:24;;;;;;;5.88;1.13;;;12.90;99.90;;;;;;5119282;28;20024;-75
2022/11/17 10:30:00;;;;;;;4.72;1.00;;;12.90;99.90;;;;;;5118777;28;20031;-78
2022/11/17 10:32:29;;;;;;;5.65;1.23;;;12.90;99.90;;;;;;5119071;28;20392;-69
2022/11/17 10:34:55;;;;;;;7.72;1.10;;;12.90;99.90;;;;;;5114824;28;20012;-78
2022/11/17 10:37:24;;;;;;;6.00;1.10;;;13.00;99.90;;;;;;5098629;28;20024;-76
2022/11/17 10:40:00;;;;;;;4.18;1.08;;;13.00;99.90;;;;;;5069755;28;20161;-76
2022/11/17 10:42:26;;;;;;;7.00;1.00;;;13.00;99.90;;;;;;5098345;28;20023;-74
2022/11/17 10:44:55;;;;;;;4.50;0.73;;;13.10;99.90;;;;;;5106985;28;20022;-80
2022/11/17 10:47:37;;;;;;;5.65;1.00;;;13.10;99.90;;;;;;5113798;28;20046;-78
2022/11/17 10:50:20;;;;;;;4.13;0.88;;;13.20;99.90;;;;;;5097728;28;20054;-77
2022/11/17 10:52:47;;;;;;;3.40;0.52;;;13.20;99.90;;;;;;5097671;28;20071;-84
2022/11/17 10:55:21;;;;;;;5.80;1.10;;;13.20;99.90;;;;;;5111980;28;20107;-77
2022/11/17 10:57:52;;;;;;;2.90;0.63;;;13.20;99.90;;;;;;5082241;28;20120;-75
2022/11/17 11:00:33;;;;;;;3.63;1.13;;;13.20;99.90;;;;;;5107900;28;20022;-75
2022/11/17 11:03:17;;;;;;;3.15;0.90;;;13.20;99.90;;;;;;5097107;28;20103;-75
2022/11/17 11:05:58;;;;;;;3.08;0.60;;;13.20;99.90;;;;;;5097156;28;20027;-75
2022/11/17 11:08:34;;;;;;;2.78;0.50;;;13.20;99.90;;;;;;5112942;28;20034;-75
2022/11/17 11:11:04;;;;;;;2.17;0.80;;;13.30;99.90;;;;;;5117025;28;20068;-75
2022/11/17 11:14:01;;;;;;;3.80;0.93;;;13.30;99.90;;;;;;5117239;28;20023;-75
2022/11/17 11:16:29;;;;;;;3.05;0.70;;;13.40;99.90;;;;;;5112910;28;20153;-75
2022/11/17 11:18:56;;;;;;;3.08;0.50;;;13.50;99.90;;;;;;5118123;28;20023;-75
2022/11/17 11:21:43;;;;;;;5.22;0.70;;;13.50;99.90;;;;;;5098843;28;20497;-75
2022/11/17 11:24:33;;;;;;;3.13;0.50;;;13.40;99.90;;;;;;5092838;28;20111;-75
2022/11/17 11:27:13;;;;;;;3.25;0.57;;;13.40;99.90;;;;;;5087635;28;20484;-75
2022/11/17 11:29:57;;;;;;;4.10;0.80;;;13.50;99.90;;;;;;5097305;28;20030;-75
2022/11/17 11:32:32;;;;;;;;;;;13.50;99.90;;;;;;5098279;28;20067;-74
2022/11/17 11:35:20;;;;;;;2.85;0.80;;;13.50;99.10;;;;;;5098548;28;19953;-72
2022/11/17 11:38:01;;;;;;;3.33;0.60;;;13.40;99.90;;;;;;5084366;28;20120;-72
2022/11/17 11:40:32;;;;;;;3.20;0.98;;;13.40;99.40;;;;;;5100829;28;20034;-72
2022/11/17 11:43:19;;;;;;;3.22;0.70;;;13.40;99.90;;;;;;5106154;28;20098;-69
2022/11/17 11:46:18;;;;;;;3.65;0.68;;;13.40;99.60;;;;;;5098946;28;20051;-71
2022/11/17 11:48:46;;;;;;;5.55;0.85;;;13.40;98.90;;;;;;5096494;28;20052;-71
2022/11/17 11:51:18;;;;;;;7.35;0.80;;;13.50;99.90;;;;;;5110774;28;20035;-69
2022/11/17 11:53:56;;;;;;;2.70;1.13;;;13.50;99.90;;;;;;5092809;28;20031;-70
2022/11/17 11:56:25;;;;;;;2.13;0.52;;;13.50;99.90;;;;;;5097198;28;20051;-71
2022/11/17 11:59:14;;;;;;;2.90;0.75;;;13.50;99.80;;;;;;5097063;28;20104;-70
2022/11/17 12:02:05;;;;;;;4.38;0.90;;;13.50;99.30;;;;;;5079195;28;20028;-70
2022/11/17 12:04:57;;;;;;;1.48;0.70;;;13.50;99.50;;;;;;5117604;28;20085;-70
2022/11/17 12:07:29;;;;;;;2.60;0.68;;;13.50;98.10;;;;;;5110383;28;20058;-71
2022/11/17 12:09:58;;;;;;;1.98;0.82;;;13.50;99.90;;;;;;5093824;28;20035;-70
2022/11/17 12:12:30;;;;;;;2.67;0.70;;;13.50;99.20;;;;;;5099169;28;20035;-69
2022/11/17 12:15:25;;;;;;;2.47;0.70;;;13.60;99.10;;;;;;5117037;28;20115;-71
2022/11/17 12:17:59;;;;;;;1.15;0.38;;;13.60;99.30;;;;;;5090214;28;20519;-70
2022/11/17 12:21:04;;;;;;;4.25;1.02;;;13.70;99.30;;;;;;5098161;28;20027;-71
2022/11/17 12:23:48;;;;;;;3.42;0.80;;;13.80;99.80;;;;;;5105368;28;20013;-68
2022/11/17 12:26:23;;;;;;;2.95;0.45;;;13.90;99.80;;;;;;5112230;28;20019;-72
2022/11/17 12:28:48;;;;;;;3.40;0.60;;;14.00;99.40;;;;;;5099296;28;20054;-75
2022/11/17 12:31:23;;;;;;;3.90;0.60;;;14.10;99.40;;;;;;5088266;28;20020;-76
2022/11/17 12:33:51;;;;;;;7.05;0.90;;;14.20;99.20;;;;;;5095498;28;20030;-73
2022/11/17 12:36:23;;;;;;;3.35;0.70;;;14.20;98.50;;;;;;5100492;28;20069;-73
2022/11/17 12:38:49;;;;;;;7.07;0.90;;;14.20;98.80;;;;;;5078700;28;20036;-74
2022/11/17 12:41:47;;;;;;;5.78;1.33;;;14.20;98.10;;;;;;5077817;28;20059;-75
2022/11/17 12:44:31;;;;;;;4.40;0.68;;;14.20;98.70;;;;;;5110708;28;20505;-73
2022/11/17 12:47:14;;;;;;;4.38;0.80;;;14.10;98.30;;;;;;5107200;28;20027;-73
2022/11/17 12:50:14;;;;;;;5.13;1.02;;;14.10;98.40;;;;;;5101122;28;20056;-75
2022/11/17 12:53:06;;;;;;;2.92;0.80;;;14.10;98.30;;;;;;5107832;28;20047;-76
2022/11/17 12:55:31;;;;;;;3.50;0.80;;;14.10;98.40;;;;;;5113714;28;20496;-74
2022/11/17 12:58:09;;;;;;;5.75;0.95;;;14.10;97.50;;;;;;5100174;28;20028;-76
2022/11/17 13:00:46;;;;;;;2.90;0.60;;;14.10;96.90;;;;;;5107829;28;20034;-76
2022/11/17 13:03:21;;;;;;;2.05;0.65;;;14.00;97.10;;;;;;5099994;28;20056;-77
2022/11/17 13:06:08;;;;;;;4.72;1.13;;;14.00;97.40;;;;;;5081838;28;20028;-75
2022/11/17 13:08:34;;;;;;;4.65;0.88;;;14.00;97.60;;;;;;5113901;28;20085;-76
2022/11/17 13:11:13;;;;;;;5.85;0.82;;;14.00;98.00;;;;;;5100247;28;20055;-76
2022/11/17 13:13:40;;;;;;;3.72;0.95;;;14.00;97.70;;;;;;5108785;28;20063;-76
2022/11/17 13:16:18;;;;;;;3.38;0.60;;;14.00;97.70;;;;;;5120290;28;20495;-75
2022/11/17 13:18:44;;;;;;;2.58;0.63;;;13.90;98.10;;;;;;5099157;28;20024;-75
2022/11/17 13:21:25;;;;;;;6.50;1.00;;;13.90;97.60;;;;;;5104685;28;20016;-75
2022/11/17 13:23:51;;;;;;;3.80;0.63;;;13.90;98.00;;;;;;5089835;28;20035;-76
2022/11/17 13:26:20;;;;;;;4.40;0.90;;;13.90;97.10;;;;;;5100245;28;20102;-75
2022/11/17 13:28:47;;;;;;;5.60;0.98;;;13.90;97.60;;;;;;5104714;28;20102;-75
2022/11/17 13:31:19;;;;;;;4.07;0.75;;;13.80;97.00;;;;;;5088485;28;20028;-75
2022/11/17 13:34:03;;;;;;;3.47;0.80;;;13.90;98.40;;;;;;5101969;28;20020;-78
2022/11/17 13:36:29;;;;;;;2.60;0.98;;;13.90;97.70;;;;;;5100454;28;20573;-76
2022/11/17 13:38:59;;;;;;;3.15;1.02;;;13.80;96.90;;;;;;5081312;28;20036;-81
2022/11/17 13:41:27;;;;;;;4.55;0.88;;;13.80;97.00;;;;;;5110150;28;20058;-81
2022/11/17 13:43:53;;;;;;;5.13;0.60;;;13.80;97.30;;;;;;5095484;28;20024;-81
2022/11/17 13:46:20;;;;;;;5.13;1.00;;;13.70;97.30;;;;;;5109582;28;20016;-78